TVS4104 GVAC-LKPR
Flight info
| Callsign | TVS4104 |
|---|---|
| Flight time | 6h 7m |
| Altitude | 33000 |
| Route | DIMKI1A DIMKI DCT TENPA N866 GOMER/N0447F320 N866 BRICK/N0451F340 N866 GURKA N729 BIMBO DCT DEMOS DCT LOTEE/N0453F360 DCT AZFIC UN741 NTS DCT GONEK DCT TABOV UN858 OQQAL DCT RANUX/N0443F370 DCT VALEK DCT LIPNI UN858 LIMGO DCT BOMBI DCT BOREP DCT TONSU Z35 ODOMO DCT LOMKI |
| Aircraft | B739/M-SDFGIJ1LORVWXYZ/LB1 |
Departure
| Time | 2026-05-04 14:19 |
|---|---|
| Airport | Amílcar Cabral International Airport (GVAC) |
Arrival
| Time | 2026-05-04 20:26 |
|---|---|
| Airport | Václav Havel Airport Prague (LKPR) |
| Time | Latitude | Longitude | Altitude | Speed | Heading |
|---|---|---|---|---|---|
| 2026-05-04 14:15 | 16.72684 | -22.94688 | 184 ft | 14 kts | 179° |
| 2026-05-04 14:15 | 16.72467 | -22.94687 | 183 ft | 18 kts | 180° |
| 2026-05-04 14:16 | 16.72405 | -22.94767 | 188 ft | 0 kts | 266° |
| 2026-05-04 14:16 | 16.72405 | -22.94771 | 192 ft | 4 kts | 266° |
| 2026-05-04 14:17 | 16.72441 | -22.94886 | 187 ft | 7 kts | 359° |
| 2026-05-04 14:17 | 16.72446 | -22.94886 | 187 ft | 0 kts | 358° |
| 2026-05-04 14:17 | 16.72744 | -22.94891 | 186 ft | 76 kts | 359° |
| 2026-05-04 14:18 | 16.73484 | -22.94896 | 188 ft | 134 kts | 359° |
| 2026-05-04 14:18 | 16.75444 | -22.94880 | 490 ft | 182 kts | 356° |
| 2026-05-04 14:19 | 16.77990 | -22.95005 | 1657 ft | 193 kts | 2° |
| 2026-05-04 14:19 | 16.79381 | -22.94994 | 1828 ft | 211 kts | 2° |
| 2026-05-04 14:19 | 16.80908 | -22.94988 | 1968 ft | 228 kts | 2° |
| 2026-05-04 14:19 | 16.82546 | -22.94990 | 2303 ft | 240 kts | 2° |
| 2026-05-04 14:20 | 16.84266 | -22.94995 | 2620 ft | 261 kts | 1° |
| 2026-05-04 14:20 | 16.86140 | -22.94998 | 2995 ft | 272 kts | 1° |
| 2026-05-04 14:20 | 16.88024 | -22.95016 | 3712 ft | 271 kts | 0° |
| 2026-05-04 14:21 | 16.91800 | -22.94867 | 4890 ft | 275 kts | 16° |
| 2026-05-04 14:21 | 16.93569 | -22.94097 | 5433 ft | 278 kts | 30° |
| 2026-05-04 14:21 | 16.95210 | -22.93007 | 5964 ft | 281 kts | 34° |
| 2026-05-04 14:21 | 16.96822 | -22.91824 | 6488 ft | 285 kts | 36° |
| 2026-05-04 14:22 | 16.98441 | -22.90613 | 7015 ft | 288 kts | 36° |
| 2026-05-04 14:22 | 17.00081 | -22.89391 | 7512 ft | 291 kts | 36° |
| 2026-05-04 14:22 | 17.01745 | -22.88160 | 8028 ft | 294 kts | 36° |
| 2026-05-04 14:22 | 17.03426 | -22.86924 | 8567 ft | 297 kts | 36° |
| 2026-05-04 14:23 | 17.06840 | -22.84434 | 9642 ft | 302 kts | 36° |
| 2026-05-04 14:23 | 17.08572 | -22.83176 | 10137 ft | 305 kts | 36° |
| 2026-05-04 14:23 | 17.10364 | -22.81876 | 10300 ft | 322 kts | 36° |
| 2026-05-04 14:24 | 17.12251 | -22.80507 | 10436 ft | 339 kts | 36° |
| 2026-05-04 14:24 | 17.14233 | -22.79071 | 10547 ft | 354 kts | 36° |
| 2026-05-04 14:24 | 17.16302 | -22.77572 | 10695 ft | 368 kts | 36° |
| 2026-05-04 14:24 | 17.18426 | -22.76034 | 11038 ft | 374 kts | 35° |
| 2026-05-04 14:25 | 17.20566 | -22.74485 | 11536 ft | 375 kts | 35° |
| 2026-05-04 14:25 | 17.24877 | -22.71366 | 12488 ft | 379 kts | 35° |
| 2026-05-04 14:25 | 17.27055 | -22.69790 | 12945 ft | 382 kts | 34° |
| 2026-05-04 14:26 | 17.29247 | -22.68203 | 13415 ft | 385 kts | 34° |
| 2026-05-04 14:26 | 17.31454 | -22.66604 | 13893 ft | 386 kts | 34° |
| 2026-05-04 14:26 | 17.33669 | -22.64998 | 14317 ft | 388 kts | 34° |
| 2026-05-04 14:26 | 17.35897 | -22.63383 | 14733 ft | 391 kts | 34° |
| 2026-05-04 14:27 | 17.38138 | -22.61758 | 15129 ft | 393 kts | 34° |
| 2026-05-04 14:27 | 17.40393 | -22.60123 | 15539 ft | 395 kts | 34° |
| 2026-05-04 14:27 | 17.42661 | -22.58477 | 15943 ft | 397 kts | 34° |
| 2026-05-04 14:27 | 17.44938 | -22.56824 | 16339 ft | 400 kts | 34° |
| 2026-05-04 14:28 | 17.47231 | -22.55159 | 16722 ft | 402 kts | 33° |
| 2026-05-04 14:28 | 17.49537 | -22.53484 | 17099 ft | 404 kts | 33° |
| 2026-05-04 14:28 | 17.51853 | -22.51802 | 17479 ft | 406 kts | 33° |
| 2026-05-04 14:28 | 17.54183 | -22.50108 | 17868 ft | 408 kts | 33° |
| 2026-05-04 14:29 | 17.58872 | -22.46698 | 18550 ft | 412 kts | 33° |
| 2026-05-04 14:29 | 17.63613 | -22.43249 | 19148 ft | 417 kts | 33° |
| 2026-05-04 14:30 | 17.66004 | -22.41508 | 19449 ft | 419 kts | 33° |
| 2026-05-04 14:30 | 17.68373 | -22.39783 | 19744 ft | 421 kts | 33° |
| 2026-05-04 14:30 | 17.73213 | -22.36255 | 20315 ft | 426 kts | 33° |
| 2026-05-04 14:31 | 17.75657 | -22.34473 | 20594 ft | 429 kts | 33° |
| 2026-05-04 14:31 | 17.80579 | -22.30881 | 21171 ft | 433 kts | 33° |
| 2026-05-04 14:32 | 17.85554 | -22.27250 | 21712 ft | 438 kts | 32° |
| 2026-05-04 14:32 | 17.88116 | -22.25517 | 21960 ft | 438 kts | 23° |
| 2026-05-04 14:32 | 17.90993 | -22.24544 | 22201 ft | 434 kts | 5° |
| 2026-05-04 14:32 | 17.93987 | -22.24256 | 22522 ft | 432 kts | 1° |
| 2026-05-04 14:33 | 17.96991 | -22.24051 | 22790 ft | 434 kts | 0° |
| 2026-05-04 14:33 | 18.00016 | -22.23858 | 23029 ft | 437 kts | 0° |
| 2026-05-04 14:33 | 18.03056 | -22.23660 | 23295 ft | 439 kts | 0° |
| 2026-05-04 14:33 | 18.06110 | -22.23450 | 23569 ft | 440 kts | 0° |
| 2026-05-04 14:34 | 18.09174 | -22.23228 | 23789 ft | 443 kts | 0° |
| 2026-05-04 14:34 | 18.12258 | -22.22997 | 23978 ft | 445 kts | 0° |
| 2026-05-04 14:34 | 18.15356 | -22.22760 | 24160 ft | 448 kts | 0° |
| 2026-05-04 14:34 | 18.18472 | -22.22518 | 24357 ft | 450 kts | 0° |
| 2026-05-04 14:35 | 18.21602 | -22.22274 | 24557 ft | 452 kts | 0° |
| 2026-05-04 14:35 | 18.24746 | -22.22028 | 24747 ft | 455 kts | 0° |
| 2026-05-04 14:35 | 18.27909 | -22.21781 | 24946 ft | 457 kts | 0° |
| 2026-05-04 14:35 | 18.31081 | -22.21534 | 25141 ft | 459 kts | 0° |
| 2026-05-04 14:36 | 18.34272 | -22.21285 | 25342 ft | 461 kts | 0° |
| 2026-05-04 14:36 | 18.37478 | -22.21035 | 25530 ft | 463 kts | 360° |
| 2026-05-04 14:36 | 18.40700 | -22.20783 | 25718 ft | 465 kts | 360° |
| 2026-05-04 14:36 | 18.43934 | -22.20531 | 25913 ft | 467 kts | 360° |
| 2026-05-04 14:37 | 18.47181 | -22.20278 | 26100 ft | 469 kts | 360° |
| 2026-05-04 14:37 | 18.50441 | -22.20023 | 26288 ft | 471 kts | 360° |
| 2026-05-04 14:37 | 18.53677 | -22.19771 | 26484 ft | 473 kts | 359° |
| 2026-05-04 14:37 | 18.57005 | -22.19511 | 26677 ft | 475 kts | 359° |
| 2026-05-04 14:38 | 18.60267 | -22.19256 | 26853 ft | 477 kts | 359° |
| 2026-05-04 14:38 | 18.63622 | -22.18993 | 27051 ft | 478 kts | 359° |
| 2026-05-04 14:38 | 18.66947 | -22.18733 | 27241 ft | 480 kts | 359° |
| 2026-05-04 14:38 | 18.70282 | -22.18472 | 27410 ft | 482 kts | 359° |
| 2026-05-04 14:39 | 18.73588 | -22.18214 | 27607 ft | 483 kts | 359° |
| 2026-05-04 14:39 | 18.76990 | -22.17947 | 27774 ft | 485 kts | 359° |
| 2026-05-04 14:39 | 18.80359 | -22.17683 | 27956 ft | 486 kts | 359° |
| 2026-05-04 14:40 | 18.87134 | -22.17152 | 28303 ft | 490 kts | 359° |
| 2026-05-04 14:40 | 18.90537 | -22.16885 | 28472 ft | 491 kts | 359° |
| 2026-05-04 14:40 | 18.93954 | -22.16617 | 28642 ft | 493 kts | 359° |
| 2026-05-04 14:40 | 18.97331 | -22.16352 | 28826 ft | 494 kts | 359° |
| 2026-05-04 14:41 | 19.00754 | -22.16083 | 29082 ft | 493 kts | 358° |
| 2026-05-04 14:41 | 19.04177 | -22.15813 | 29342 ft | 493 kts | 358° |
| 2026-05-04 14:41 | 19.11018 | -22.15275 | 29798 ft | 494 kts | 358° |
| 2026-05-04 14:42 | 19.17876 | -22.14736 | 30237 ft | 494 kts | 358° |
| 2026-05-04 14:42 | 19.21302 | -22.14466 | 30473 ft | 493 kts | 358° |
| 2026-05-04 14:42 | 19.24725 | -22.14195 | 30713 ft | 493 kts | 358° |
| 2026-05-04 14:43 | 19.28136 | -22.13926 | 30954 ft | 492 kts | 358° |
| 2026-05-04 14:43 | 19.31551 | -22.13657 | 31179 ft | 492 kts | 358° |
| 2026-05-04 14:43 | 19.34962 | -22.13388 | 31423 ft | 491 kts | 358° |
| 2026-05-04 14:43 | 19.38359 | -22.13120 | 31664 ft | 490 kts | 358° |
| 2026-05-04 14:44 | 19.41756 | -22.12852 | 31910 ft | 489 kts | 358° |
| 2026-05-04 14:44 | 19.45146 | -22.12584 | 32135 ft | 488 kts | 358° |
| 2026-05-04 14:44 | 19.48531 | -22.12317 | 32353 ft | 487 kts | 358° |
| 2026-05-04 14:44 | 19.51908 | -22.12050 | 32587 ft | 486 kts | 358° |
| 2026-05-04 14:45 | 19.55277 | -22.11784 | 32819 ft | 485 kts | 358° |
| 2026-05-04 14:45 | 19.58639 | -22.11518 | 33038 ft | 484 kts | 358° |
| 2026-05-04 14:45 | 19.61998 | -22.11252 | 33254 ft | 483 kts | 358° |
| 2026-05-04 14:45 | 19.65343 | -22.10987 | 33474 ft | 482 kts | 358° |
| 2026-05-04 14:46 | 19.68679 | -22.10723 | 33676 ft | 481 kts | 358° |
| 2026-05-04 14:46 | 19.72014 | -22.10459 | 33864 ft | 480 kts | 358° |
| 2026-05-04 14:46 | 19.75339 | -22.10196 | 33986 ft | 479 kts | 358° |
| 2026-05-04 14:46 | 19.78666 | -22.09933 | 33975 ft | 480 kts | 358° |
| 2026-05-04 14:47 | 19.85324 | -22.09405 | 33996 ft | 479 kts | 358° |
| 2026-05-04 14:47 | 19.91972 | -22.08877 | 33995 ft | 479 kts | 358° |
| 2026-05-04 14:48 | 19.98612 | -22.08349 | 33994 ft | 478 kts | 358° |
| 2026-05-04 14:48 | 20.05245 | -22.07822 | 33999 ft | 478 kts | 358° |
| 2026-05-04 14:49 | 20.11827 | -22.07298 | 33998 ft | 477 kts | 358° |
| 2026-05-04 14:49 | 20.18448 | -22.06770 | 33998 ft | 477 kts | 358° |
| 2026-05-04 14:50 | 20.25071 | -22.06242 | 33999 ft | 477 kts | 358° |
| 2026-05-04 14:50 | 20.31687 | -22.05714 | 33999 ft | 477 kts | 358° |
| 2026-05-04 14:51 | 20.38300 | -22.05186 | 33999 ft | 477 kts | 358° |
| 2026-05-04 14:51 | 20.44913 | -22.04657 | 33992 ft | 477 kts | 358° |
| 2026-05-04 14:52 | 20.51530 | -22.04128 | 33991 ft | 477 kts | 358° |
| 2026-05-04 14:52 | 20.58142 | -22.03598 | 33992 ft | 477 kts | 358° |
| 2026-05-04 14:53 | 20.64758 | -22.03067 | 33992 ft | 477 kts | 358° |
| 2026-05-04 14:53 | 20.71378 | -22.02536 | 33996 ft | 477 kts | 358° |
| 2026-05-04 14:54 | 20.77998 | -22.02004 | 33992 ft | 477 kts | 358° |
| 2026-05-04 14:54 | 20.84622 | -22.01472 | 33993 ft | 478 kts | 358° |
| 2026-05-04 14:55 | 20.91252 | -22.00938 | 33993 ft | 478 kts | 358° |
| 2026-05-04 14:55 | 20.97884 | -22.00404 | 33995 ft | 478 kts | 358° |
| 2026-05-04 14:56 | 21.04513 | -21.99869 | 33995 ft | 478 kts | 358° |
| 2026-05-04 14:56 | 21.11148 | -21.99333 | 33998 ft | 478 kts | 358° |
| 2026-05-04 14:57 | 21.17783 | -21.98796 | 33997 ft | 478 kts | 358° |
| 2026-05-04 14:57 | 21.24422 | -21.98257 | 33995 ft | 478 kts | 358° |
| 2026-05-04 14:58 | 21.31060 | -21.97720 | 33998 ft | 478 kts | 358° |
| 2026-05-04 14:58 | 21.36537 | -21.96547 | 34005 ft | 490 kts | 13° |
| 2026-05-04 14:59 | 21.40731 | -21.94533 | 33987 ft | 499 kts | 26° |
| 2026-05-04 14:59 | 21.43658 | -21.92630 | 34016 ft | 499 kts | 27° |
| 2026-05-04 15:00 | 21.52486 | -21.86650 | 33997 ft | 500 kts | 27° |
| 2026-05-04 15:00 | 21.58399 | -21.82695 | 33996 ft | 500 kts | 27° |
| 2026-05-04 15:01 | 21.67296 | -21.76817 | 33991 ft | 501 kts | 27° |
| 2026-05-04 15:01 | 21.73238 | -21.72894 | 33998 ft | 501 kts | 27° |
| 2026-05-04 15:02 | 21.79183 | -21.68963 | 34006 ft | 502 kts | 27° |
| 2026-05-04 15:02 | 21.85128 | -21.65025 | 34003 ft | 502 kts | 27° |
| 2026-05-04 15:03 | 21.91079 | -21.61079 | 33999 ft | 503 kts | 27° |
| 2026-05-04 15:03 | 21.97036 | -21.57125 | 33998 ft | 503 kts | 27° |
| 2026-05-04 15:04 | 22.02995 | -21.53166 | 34002 ft | 503 kts | 27° |
| 2026-05-04 15:04 | 22.08955 | -21.49202 | 34000 ft | 503 kts | 27° |
| 2026-05-04 15:05 | 22.13951 | -21.45877 | 33997 ft | 503 kts | 27° |
| 2026-05-04 15:05 | 22.20874 | -21.41264 | 34007 ft | 503 kts | 27° |
| 2026-05-04 15:06 | 22.25867 | -21.37933 | 33994 ft | 503 kts | 27° |
| 2026-05-04 15:07 | 22.34760 | -21.31994 | 34003 ft | 503 kts | 27° |
| 2026-05-04 15:07 | 22.40720 | -21.28010 | 34006 ft | 504 kts | 27° |
| 2026-05-04 15:08 | 22.46678 | -21.24022 | 33999 ft | 504 kts | 27° |
| 2026-05-04 15:08 | 22.52635 | -21.20030 | 34003 ft | 504 kts | 27° |
| 2026-05-04 15:09 | 22.58600 | -21.16029 | 34000 ft | 504 kts | 27° |
| 2026-05-04 15:09 | 22.64565 | -21.12024 | 33999 ft | 505 kts | 27° |
| 2026-05-04 15:10 | 22.73514 | -21.06007 | 34002 ft | 505 kts | 27° |
| 2026-05-04 15:11 | 22.82469 | -20.99977 | 34008 ft | 506 kts | 27° |
| 2026-05-04 15:11 | 22.88448 | -20.95945 | 34003 ft | 506 kts | 27° |
| 2026-05-04 15:12 | 22.94420 | -20.91912 | 34008 ft | 506 kts | 27° |
| 2026-05-04 15:12 | 23.00397 | -20.87871 | 34003 ft | 506 kts | 27° |
| 2026-05-04 15:13 | 23.06374 | -20.83827 | 34005 ft | 506 kts | 27° |
| 2026-05-04 15:13 | 23.12354 | -20.79784 | 34003 ft | 506 kts | 27° |
| 2026-05-04 15:14 | 23.18334 | -20.75740 | 34003 ft | 506 kts | 27° |
| 2026-05-04 15:14 | 23.24313 | -20.71688 | 34002 ft | 506 kts | 27° |
| 2026-05-04 15:15 | 23.30288 | -20.67631 | 34005 ft | 506 kts | 27° |
| 2026-05-04 15:15 | 23.36264 | -20.63570 | 34008 ft | 506 kts | 27° |
| 2026-05-04 15:16 | 23.45224 | -20.57471 | 34003 ft | 507 kts | 27° |
| 2026-05-04 15:17 | 23.54147 | -20.51389 | 34005 ft | 507 kts | 27° |
| 2026-05-04 15:17 | 23.63111 | -20.45268 | 34005 ft | 507 kts | 27° |
| 2026-05-04 15:18 | 23.69088 | -20.41181 | 34006 ft | 507 kts | 27° |
| 2026-05-04 15:19 | 23.78058 | -20.35040 | 34006 ft | 507 kts | 27° |
| 2026-05-04 15:19 | 23.87027 | -20.28889 | 34010 ft | 508 kts | 27° |
| 2026-05-04 15:20 | 23.93009 | -20.24781 | 34012 ft | 508 kts | 27° |
| 2026-05-04 15:20 | 23.98994 | -20.20667 | 34014 ft | 508 kts | 27° |
| 2026-05-04 15:21 | 24.04979 | -20.16548 | 34015 ft | 508 kts | 27° |
| 2026-05-04 15:22 | 24.13968 | -20.10365 | 34014 ft | 509 kts | 27° |
| 2026-05-04 15:22 | 24.22912 | -20.04191 | 34016 ft | 509 kts | 27° |
| 2026-05-04 15:23 | 24.28908 | -20.00043 | 34014 ft | 509 kts | 27° |
| 2026-05-04 15:23 | 24.34902 | -19.95892 | 34012 ft | 510 kts | 27° |
| 2026-05-04 15:24 | 24.46891 | -19.87574 | 34013 ft | 510 kts | 27° |
| 2026-05-04 15:25 | 24.52892 | -19.83404 | 34016 ft | 510 kts | 27° |
| 2026-05-04 15:26 | 24.61889 | -19.77143 | 34017 ft | 511 kts | 27° |
| 2026-05-04 15:26 | 24.70889 | -19.70869 | 34020 ft | 511 kts | 27° |
| 2026-05-04 15:27 | 24.79888 | -19.64584 | 34019 ft | 511 kts | 27° |
| 2026-05-04 15:28 | 24.88887 | -19.58289 | 34019 ft | 511 kts | 27° |
| 2026-05-04 15:29 | 24.97882 | -19.51985 | 34021 ft | 511 kts | 27° |
| 2026-05-04 15:30 | 25.18884 | -19.37225 | 34021 ft | 512 kts | 27° |
| 2026-05-04 15:31 | 25.27842 | -19.30910 | 34020 ft | 512 kts | 27° |
| 2026-05-04 15:32 | 25.42856 | -19.20301 | 34024 ft | 512 kts | 27° |
| 2026-05-04 15:34 | 25.57872 | -19.09658 | 34028 ft | 513 kts | 27° |
| 2026-05-04 15:34 | 25.66886 | -19.03253 | 34027 ft | 513 kts | 27° |
| 2026-05-04 15:35 | 25.75901 | -18.96835 | 34032 ft | 513 kts | 27° |
| 2026-05-04 15:36 | 25.84916 | -18.90404 | 34032 ft | 514 kts | 27° |
| 2026-05-04 15:36 | 25.90927 | -18.86109 | 34032 ft | 514 kts | 27° |
| 2026-05-04 15:37 | 25.96942 | -18.81806 | 34035 ft | 514 kts | 27° |
| 2026-05-04 15:37 | 26.02956 | -18.77504 | 34035 ft | 514 kts | 27° |
| 2026-05-04 15:38 | 26.08975 | -18.73196 | 34035 ft | 514 kts | 27° |
| 2026-05-04 15:38 | 26.14991 | -18.68880 | 34033 ft | 515 kts | 27° |
| 2026-05-04 15:39 | 26.21006 | -18.64556 | 34046 ft | 515 kts | 27° |
| 2026-05-04 15:40 | 26.30035 | -18.58056 | 34043 ft | 515 kts | 27° |
| 2026-05-04 15:40 | 26.36054 | -18.53715 | 34041 ft | 515 kts | 27° |
| 2026-05-04 15:41 | 26.42078 | -18.49367 | 34034 ft | 516 kts | 27° |
| 2026-05-04 15:41 | 26.48102 | -18.45012 | 34048 ft | 516 kts | 27° |
| 2026-05-04 15:42 | 26.54127 | -18.40651 | 34040 ft | 516 kts | 27° |
| 2026-05-04 15:42 | 26.60112 | -18.36313 | 34045 ft | 516 kts | 27° |
| 2026-05-04 15:43 | 26.66144 | -18.31936 | 34042 ft | 517 kts | 27° |
| 2026-05-04 15:43 | 26.72177 | -18.27553 | 34048 ft | 517 kts | 27° |
| 2026-05-04 15:44 | 26.78211 | -18.23163 | 34049 ft | 518 kts | 27° |
| 2026-05-04 15:44 | 26.84253 | -18.18762 | 34049 ft | 518 kts | 27° |
| 2026-05-04 15:45 | 26.90531 | -18.14969 | 34058 ft | 508 kts | 15° |
| 2026-05-04 15:45 | 26.97101 | -18.12096 | 34050 ft | 507 kts | 13° |
| 2026-05-04 15:46 | 27.03692 | -18.09257 | 34048 ft | 508 kts | 14° |
| 2026-05-04 15:46 | 27.10273 | -18.06348 | 34052 ft | 509 kts | 14° |
| 2026-05-04 15:47 | 27.16852 | -18.03392 | 34050 ft | 509 kts | 14° |
| 2026-05-04 15:47 | 27.23433 | -18.00421 | 34051 ft | 510 kts | 14° |
| 2026-05-04 15:48 | 27.30018 | -17.97447 | 34055 ft | 510 kts | 14° |
| 2026-05-04 15:48 | 27.39859 | -17.93000 | 34055 ft | 510 kts | 14° |
| 2026-05-04 15:49 | 27.46443 | -17.90021 | 34060 ft | 510 kts | 14° |
| 2026-05-04 15:49 | 27.53032 | -17.87036 | 34065 ft | 510 kts | 14° |
| 2026-05-04 15:50 | 27.59657 | -17.84031 | 34068 ft | 510 kts | 14° |
| 2026-05-04 15:50 | 27.66192 | -17.81063 | 34073 ft | 510 kts | 14° |
| 2026-05-04 15:51 | 27.72769 | -17.78071 | 34075 ft | 509 kts | 14° |
| 2026-05-04 15:51 | 27.79381 | -17.75060 | 34077 ft | 509 kts | 14° |
| 2026-05-04 15:52 | 27.85905 | -17.72085 | 34078 ft | 509 kts | 14° |
| 2026-05-04 15:52 | 27.91399 | -17.69577 | 34069 ft | 508 kts | 14° |
| 2026-05-04 15:53 | 27.97958 | -17.66579 | 34068 ft | 508 kts | 14° |
| 2026-05-04 15:53 | 28.05570 | -17.63095 | 34071 ft | 508 kts | 14° |
| 2026-05-04 15:54 | 28.12121 | -17.60092 | 34077 ft | 507 kts | 14° |
| 2026-05-04 15:54 | 28.17604 | -17.57576 | 34074 ft | 507 kts | 14° |
| 2026-05-04 15:55 | 28.24146 | -17.54569 | 34078 ft | 507 kts | 14° |
| 2026-05-04 15:55 | 28.30679 | -17.51564 | 34083 ft | 507 kts | 14° |
| 2026-05-04 15:56 | 28.37216 | -17.48552 | 34087 ft | 507 kts | 14° |
| 2026-05-04 15:56 | 28.43746 | -17.45539 | 34083 ft | 507 kts | 14° |
| 2026-05-04 15:57 | 28.50277 | -17.42522 | 34078 ft | 506 kts | 14° |
| 2026-05-04 15:57 | 28.56800 | -17.39505 | 34079 ft | 506 kts | 14° |
| 2026-05-04 15:58 | 28.63321 | -17.36484 | 34077 ft | 506 kts | 15° |
| 2026-05-04 15:58 | 28.69790 | -17.33483 | 34073 ft | 505 kts | 15° |
| 2026-05-04 15:59 | 28.76297 | -17.30461 | 34068 ft | 505 kts | 15° |
| 2026-05-04 15:59 | 28.82795 | -17.27439 | 34064 ft | 504 kts | 15° |
| 2026-05-04 16:00 | 28.89291 | -17.24414 | 34065 ft | 504 kts | 15° |
| 2026-05-04 16:00 | 28.95775 | -17.21390 | 34067 ft | 503 kts | 15° |
| 2026-05-04 16:01 | 29.02253 | -17.18365 | 34062 ft | 502 kts | 15° |
| 2026-05-04 16:01 | 29.08715 | -17.15344 | 34070 ft | 501 kts | 15° |
| 2026-05-04 16:02 | 29.15155 | -17.12327 | 34075 ft | 499 kts | 15° |
| 2026-05-04 16:03 | 29.24771 | -17.07816 | 34068 ft | 497 kts | 15° |
| 2026-05-04 16:03 | 29.31159 | -17.04815 | 34070 ft | 495 kts | 15° |
| 2026-05-04 16:04 | 29.37529 | -17.01819 | 34066 ft | 494 kts | 15° |
| 2026-05-04 16:04 | 29.47067 | -16.97325 | 34071 ft | 493 kts | 15° |
| 2026-05-04 16:05 | 29.53414 | -16.94329 | 34073 ft | 493 kts | 15° |
| 2026-05-04 16:06 | 29.62926 | -16.89831 | 34074 ft | 493 kts | 15° |
| 2026-05-04 16:07 | 29.75610 | -16.83819 | 34075 ft | 493 kts | 16° |
| 2026-05-04 16:08 | 29.88256 | -16.77808 | 34076 ft | 493 kts | 16° |
| 2026-05-04 16:09 | 30.04121 | -16.70244 | 34077 ft | 494 kts | 16° |
| 2026-05-04 16:10 | 30.16816 | -16.64172 | 34080 ft | 494 kts | 16° |
| 2026-05-04 16:11 | 30.29500 | -16.58088 | 34082 ft | 493 kts | 16° |
| 2026-05-04 16:12 | 30.48497 | -16.48945 | 34075 ft | 492 kts | 16° |
| 2026-05-04 16:13 | 30.61136 | -16.42840 | 34088 ft | 492 kts | 16° |
| 2026-05-04 16:14 | 30.73746 | -16.36731 | 34089 ft | 491 kts | 16° |
| 2026-05-04 16:16 | 30.89462 | -16.29093 | 34088 ft | 488 kts | 17° |
| 2026-05-04 16:17 | 31.05038 | -16.21497 | 34088 ft | 485 kts | 17° |
| 2026-05-04 16:18 | 31.17478 | -16.15410 | 34092 ft | 484 kts | 17° |
| 2026-05-04 16:19 | 31.32958 | -16.07808 | 34091 ft | 482 kts | 18° |
| 2026-05-04 16:20 | 31.48357 | -16.00000 | 34095 ft | 484 kts | 20° |
| 2026-05-04 16:22 | 31.63566 | -15.91538 | 34099 ft | 484 kts | 20° |
| 2026-05-04 16:23 | 31.81793 | -15.81480 | 34098 ft | 483 kts | 21° |
| 2026-05-04 16:25 | 32.00023 | -15.71382 | 34112 ft | 486 kts | 21° |
| 2026-05-04 16:26 | 32.21740 | -15.59293 | 34117 ft | 499 kts | 21° |
| 2026-05-04 16:28 | 32.37524 | -15.50463 | 34095 ft | 503 kts | 21° |
| 2026-05-04 16:29 | 32.59725 | -15.37986 | 34104 ft | 505 kts | 21° |
| 2026-05-04 16:31 | 32.75612 | -15.29017 | 34103 ft | 506 kts | 21° |
| 2026-05-04 16:32 | 32.94739 | -15.18172 | 34124 ft | 509 kts | 21° |
| 2026-05-04 16:33 | 33.07519 | -15.10895 | 34118 ft | 509 kts | 21° |
| 2026-05-04 16:34 | 33.17117 | -15.05415 | 34124 ft | 510 kts | 21° |
| 2026-05-04 16:35 | 33.36308 | -14.94417 | 34130 ft | 511 kts | 20° |
| 2026-05-04 16:36 | 33.45899 | -14.88899 | 34124 ft | 508 kts | 20° |
| 2026-05-04 16:37 | 33.55451 | -14.83392 | 34130 ft | 508 kts | 20° |
| 2026-05-04 16:38 | 33.68192 | -14.76026 | 34133 ft | 509 kts | 20° |
| 2026-05-04 16:39 | 33.84145 | -14.66767 | 34132 ft | 510 kts | 20° |
| 2026-05-04 16:40 | 33.96938 | -14.59314 | 34143 ft | 511 kts | 20° |
| 2026-05-04 16:41 | 34.12974 | -14.49936 | 34150 ft | 513 kts | 20° |
| 2026-05-04 16:43 | 34.29011 | -14.40517 | 34150 ft | 515 kts | 20° |
| 2026-05-04 16:43 | 34.38669 | -14.34826 | 34154 ft | 515 kts | 20° |
| 2026-05-04 16:45 | 34.56949 | -14.24013 | 34156 ft | 515 kts | 19° |
| 2026-05-04 16:46 | 34.73034 | -14.14454 | 34158 ft | 514 kts | 19° |
| 2026-05-04 16:47 | 34.85882 | -14.06789 | 34157 ft | 514 kts | 19° |
| 2026-05-04 16:48 | 34.98651 | -13.99144 | 34158 ft | 512 kts | 20° |
| 2026-05-04 16:49 | 35.11426 | -13.91470 | 34167 ft | 511 kts | 20° |
| 2026-05-04 16:50 | 35.24167 | -13.83789 | 34159 ft | 510 kts | 20° |
| 2026-05-04 16:51 | 35.33709 | -13.78019 | 34160 ft | 510 kts | 20° |
| 2026-05-04 16:52 | 35.46438 | -13.70298 | 34170 ft | 511 kts | 19° |
| 2026-05-04 16:53 | 35.55998 | -13.64481 | 34163 ft | 512 kts | 19° |
| 2026-05-04 16:53 | 35.65589 | -13.58631 | 34308 ft | 514 kts | 19° |
| 2026-05-04 16:54 | 35.68788 | -13.56675 | 34429 ft | 513 kts | 19° |
| 2026-05-04 16:55 | 35.81560 | -13.48849 | 34912 ft | 509 kts | 19° |
| 2026-05-04 16:55 | 35.87849 | -13.44979 | 35493 ft | 502 kts | 19° |
| 2026-05-04 16:56 | 35.94074 | -13.41149 | 35838 ft | 500 kts | 19° |
| 2026-05-04 16:56 | 36.03379 | -13.35418 | 36145 ft | 500 kts | 19° |
| 2026-05-04 16:57 | 36.12731 | -13.29638 | 36171 ft | 502 kts | 19° |
| 2026-05-04 16:58 | 36.25237 | -13.21879 | 36169 ft | 503 kts | 19° |
| 2026-05-04 17:00 | 36.43960 | -13.10211 | 36162 ft | 501 kts | 19° |
| 2026-05-04 17:01 | 36.59506 | -13.00478 | 36050 ft | 501 kts | 19° |
| 2026-05-04 17:01 | 36.65742 | -12.96562 | 36166 ft | 503 kts | 20° |
| 2026-05-04 17:02 | 36.72005 | -12.92621 | 36168 ft | 505 kts | 20° |
| 2026-05-04 17:03 | 36.81391 | -12.86700 | 36163 ft | 507 kts | 20° |
| 2026-05-04 17:03 | 36.90837 | -12.80723 | 36163 ft | 508 kts | 20° |
| 2026-05-04 17:04 | 37.03448 | -12.72720 | 36162 ft | 509 kts | 20° |
| 2026-05-04 17:05 | 37.16071 | -12.64679 | 36157 ft | 509 kts | 20° |
| 2026-05-04 17:06 | 37.25540 | -12.58627 | 36163 ft | 509 kts | 20° |
| 2026-05-04 17:07 | 37.33980 | -12.53218 | 36163 ft | 509 kts | 20° |
| 2026-05-04 17:07 | 37.41313 | -12.48508 | 36162 ft | 509 kts | 20° |
| 2026-05-04 17:08 | 37.50769 | -12.42418 | 36162 ft | 509 kts | 20° |
| 2026-05-04 17:09 | 37.57069 | -12.38351 | 36161 ft | 509 kts | 21° |
| 2026-05-04 17:09 | 37.63364 | -12.34280 | 36164 ft | 508 kts | 21° |
| 2026-05-04 17:10 | 37.79081 | -12.24081 | 36155 ft | 508 kts | 21° |
| 2026-05-04 17:11 | 37.85356 | -12.19995 | 36152 ft | 507 kts | 21° |
| 2026-05-04 17:12 | 37.94764 | -12.13854 | 36155 ft | 507 kts | 21° |
| 2026-05-04 17:13 | 38.10424 | -12.03594 | 36155 ft | 506 kts | 21° |
| 2026-05-04 17:14 | 38.22937 | -11.95359 | 36150 ft | 506 kts | 21° |
| 2026-05-04 17:15 | 38.32271 | -11.89196 | 36150 ft | 506 kts | 21° |
| 2026-05-04 17:16 | 38.44759 | -11.80922 | 36157 ft | 506 kts | 21° |
| 2026-05-04 17:17 | 38.57243 | -11.72618 | 36151 ft | 506 kts | 21° |
| 2026-05-04 17:18 | 38.69712 | -11.64290 | 36150 ft | 506 kts | 21° |
| 2026-05-04 17:19 | 38.82178 | -11.55932 | 36147 ft | 505 kts | 21° |
| 2026-05-04 17:20 | 38.94629 | -11.47551 | 36144 ft | 505 kts | 21° |
| 2026-05-04 17:20 | 39.03964 | -11.41244 | 36146 ft | 505 kts | 21° |
| 2026-05-04 17:21 | 39.16390 | -11.32822 | 36146 ft | 505 kts | 21° |
| 2026-05-04 17:22 | 39.22601 | -11.28599 | 36145 ft | 504 kts | 21° |
| 2026-05-04 17:23 | 39.35004 | -11.20140 | 36140 ft | 504 kts | 21° |
| 2026-05-04 17:24 | 39.44297 | -11.13780 | 36140 ft | 503 kts | 21° |
| 2026-05-04 17:25 | 39.56666 | -11.05285 | 36141 ft | 503 kts | 22° |
| 2026-05-04 17:26 | 39.69019 | -10.96765 | 36136 ft | 502 kts | 22° |
| 2026-05-04 17:27 | 39.84390 | -10.86117 | 36133 ft | 502 kts | 22° |
| 2026-05-04 17:28 | 39.96702 | -10.77547 | 36138 ft | 502 kts | 22° |
| 2026-05-04 17:29 | 40.15142 | -10.64647 | 36134 ft | 501 kts | 22° |
| 2026-05-04 17:31 | 40.30467 | -10.53864 | 36124 ft | 500 kts | 22° |
| 2026-05-04 17:32 | 40.44731 | -10.43777 | 36101 ft | 499 kts | 21° |
| 2026-05-04 17:33 | 40.53688 | -10.37403 | 36118 ft | 480 kts | 21° |
| 2026-05-04 17:33 | 40.56621 | -10.35318 | 36121 ft | 478 kts | 21° |
| 2026-05-04 17:34 | 40.68288 | -10.27010 | 36124 ft | 476 kts | 21° |
| 2026-05-04 17:35 | 40.82854 | -10.16580 | 36121 ft | 478 kts | 21° |
| 2026-05-04 17:36 | 40.88710 | -10.12371 | 36121 ft | 480 kts | 21° |
| 2026-05-04 17:36 | 40.94578 | -10.08144 | 36117 ft | 482 kts | 21° |
| 2026-05-04 17:37 | 41.00479 | -10.03883 | 36109 ft | 483 kts | 22° |
| 2026-05-04 17:37 | 41.06343 | -9.99641 | 36111 ft | 483 kts | 22° |
| 2026-05-04 17:38 | 41.12241 | -9.95365 | 36109 ft | 483 kts | 22° |
| 2026-05-04 17:38 | 41.18134 | -9.91084 | 36109 ft | 483 kts | 22° |
| 2026-05-04 17:39 | 41.26967 | -9.84651 | 36106 ft | 482 kts | 22° |
| 2026-05-04 17:39 | 41.32841 | -9.80362 | 36101 ft | 482 kts | 22° |
| 2026-05-04 17:40 | 41.38710 | -9.76068 | 36108 ft | 481 kts | 22° |
| 2026-05-04 17:40 | 41.44570 | -9.71772 | 36105 ft | 481 kts | 23° |
| 2026-05-04 17:41 | 41.50435 | -9.67464 | 36106 ft | 482 kts | 23° |
| 2026-05-04 17:41 | 41.56328 | -9.63127 | 36101 ft | 485 kts | 23° |
| 2026-05-04 17:42 | 41.62243 | -9.58762 | 36097 ft | 486 kts | 23° |
| 2026-05-04 17:42 | 41.68174 | -9.54375 | 36094 ft | 488 kts | 24° |
| 2026-05-04 17:43 | 41.74107 | -9.49977 | 36095 ft | 488 kts | 24° |
| 2026-05-04 17:43 | 41.80053 | -9.45559 | 36093 ft | 489 kts | 24° |
| 2026-05-04 17:44 | 41.85998 | -9.41132 | 36091 ft | 489 kts | 24° |
| 2026-05-04 17:44 | 41.91929 | -9.36649 | 36085 ft | 491 kts | 28° |
| 2026-05-04 17:45 | 41.97281 | -9.30848 | 36096 ft | 497 kts | 38° |
| 2026-05-04 17:45 | 42.02366 | -9.24543 | 36092 ft | 497 kts | 38° |
| 2026-05-04 17:46 | 42.07452 | -9.18229 | 36084 ft | 497 kts | 38° |
| 2026-05-04 17:46 | 42.12563 | -9.11955 | 36081 ft | 497 kts | 38° |
| 2026-05-04 17:47 | 42.17683 | -9.05699 | 36080 ft | 497 kts | 38° |
| 2026-05-04 17:47 | 42.22807 | -8.99430 | 36077 ft | 497 kts | 38° |
| 2026-05-04 17:48 | 42.27921 | -8.93155 | 36077 ft | 497 kts | 38° |
| 2026-05-04 17:48 | 42.33028 | -8.86872 | 36078 ft | 497 kts | 39° |
| 2026-05-04 17:49 | 42.38098 | -8.80618 | 36079 ft | 497 kts | 39° |
| 2026-05-04 17:49 | 42.43195 | -8.74317 | 36082 ft | 497 kts | 39° |
| 2026-05-04 17:50 | 42.48294 | -8.68000 | 36067 ft | 496 kts | 39° |
| 2026-05-04 17:50 | 42.53378 | -8.61685 | 36083 ft | 496 kts | 39° |
| 2026-05-04 17:51 | 42.58468 | -8.55350 | 36072 ft | 497 kts | 39° |
| 2026-05-04 17:51 | 42.63558 | -8.49000 | 36072 ft | 497 kts | 39° |
| 2026-05-04 17:52 | 42.68637 | -8.42648 | 36083 ft | 496 kts | 39° |
| 2026-05-04 17:52 | 42.73712 | -8.36287 | 36083 ft | 496 kts | 39° |
| 2026-05-04 17:53 | 42.78782 | -8.29917 | 36067 ft | 496 kts | 40° |
| 2026-05-04 17:53 | 42.83845 | -8.23540 | 36079 ft | 496 kts | 40° |
| 2026-05-04 17:54 | 42.88909 | -8.17149 | 36073 ft | 496 kts | 40° |
| 2026-05-04 17:54 | 42.93963 | -8.10754 | 36077 ft | 496 kts | 40° |
| 2026-05-04 17:55 | 42.99014 | -8.04349 | 36074 ft | 496 kts | 40° |
| 2026-05-04 17:55 | 43.04064 | -7.97929 | 36065 ft | 496 kts | 40° |
| 2026-05-04 17:56 | 43.09075 | -7.91543 | 36071 ft | 495 kts | 40° |
| 2026-05-04 17:56 | 43.14110 | -7.85113 | 36063 ft | 495 kts | 40° |
| 2026-05-04 17:57 | 43.19142 | -7.78671 | 36065 ft | 495 kts | 40° |
| 2026-05-04 17:57 | 43.24172 | -7.72216 | 36052 ft | 495 kts | 41° |
| 2026-05-04 17:58 | 43.29190 | -7.65762 | 36054 ft | 495 kts | 41° |
| 2026-05-04 17:58 | 43.34208 | -7.59292 | 36047 ft | 495 kts | 41° |
| 2026-05-04 17:59 | 43.39217 | -7.52818 | 36049 ft | 495 kts | 41° |
| 2026-05-04 18:00 | 43.46727 | -7.43082 | 36041 ft | 495 kts | 41° |
| 2026-05-04 18:00 | 43.51735 | -7.36572 | 36045 ft | 495 kts | 41° |
| 2026-05-04 18:01 | 43.56733 | -7.30058 | 36037 ft | 495 kts | 41° |
| 2026-05-04 18:01 | 43.61729 | -7.23531 | 36040 ft | 494 kts | 41° |
| 2026-05-04 18:02 | 43.69214 | -7.13722 | 36043 ft | 494 kts | 42° |
| 2026-05-04 18:02 | 43.74200 | -7.07169 | 36028 ft | 494 kts | 42° |
| 2026-05-04 18:03 | 43.79140 | -7.00661 | 36034 ft | 494 kts | 42° |
| 2026-05-04 18:03 | 43.84114 | -6.94092 | 36023 ft | 494 kts | 42° |
| 2026-05-04 18:04 | 43.89079 | -6.87518 | 36023 ft | 494 kts | 42° |
| 2026-05-04 18:05 | 43.96515 | -6.77645 | 36019 ft | 493 kts | 42° |
| 2026-05-04 18:05 | 44.01470 | -6.71044 | 36024 ft | 493 kts | 43° |
| 2026-05-04 18:06 | 44.08891 | -6.61129 | 36019 ft | 493 kts | 43° |
| 2026-05-04 18:06 | 44.13834 | -6.54505 | 36014 ft | 493 kts | 43° |
| 2026-05-04 18:07 | 44.18768 | -6.47876 | 36008 ft | 493 kts | 43° |
| 2026-05-04 18:07 | 44.23701 | -6.41233 | 36008 ft | 493 kts | 43° |
| 2026-05-04 18:08 | 44.28629 | -6.34580 | 36009 ft | 493 kts | 43° |
| 2026-05-04 18:08 | 44.33556 | -6.27911 | 36012 ft | 493 kts | 43° |
| 2026-05-04 18:09 | 44.43394 | -6.14545 | 36009 ft | 493 kts | 44° |
| 2026-05-04 18:10 | 44.48305 | -6.07849 | 36009 ft | 493 kts | 44° |
| 2026-05-04 18:10 | 44.53210 | -6.01142 | 36003 ft | 493 kts | 44° |
| 2026-05-04 18:11 | 44.58111 | -5.94423 | 36004 ft | 493 kts | 44° |
| 2026-05-04 18:11 | 44.63010 | -5.87689 | 36001 ft | 493 kts | 44° |
| 2026-05-04 18:12 | 44.67909 | -5.80953 | 36004 ft | 493 kts | 44° |
| 2026-05-04 18:12 | 44.72828 | -5.74235 | 36000 ft | 493 kts | 44° |
| 2026-05-04 18:13 | 44.77746 | -5.67512 | 36004 ft | 493 kts | 44° |
| 2026-05-04 18:14 | 44.85107 | -5.57397 | 36005 ft | 493 kts | 44° |
| 2026-05-04 18:14 | 44.90005 | -5.50638 | 36000 ft | 493 kts | 44° |
| 2026-05-04 18:15 | 44.99801 | -5.37069 | 36004 ft | 493 kts | 44° |
| 2026-05-04 18:16 | 45.04657 | -5.30317 | 35992 ft | 493 kts | 45° |
| 2026-05-04 18:16 | 45.09547 | -5.23502 | 35991 ft | 493 kts | 45° |
| 2026-05-04 18:17 | 45.16878 | -5.13252 | 36000 ft | 494 kts | 45° |
| 2026-05-04 18:18 | 45.24197 | -5.02979 | 36001 ft | 494 kts | 45° |
| 2026-05-04 18:18 | 45.29072 | -4.96115 | 36001 ft | 494 kts | 45° |
| 2026-05-04 18:19 | 45.36378 | -4.85794 | 35989 ft | 494 kts | 45° |
| 2026-05-04 18:19 | 45.41243 | -4.78900 | 35992 ft | 494 kts | 45° |
| 2026-05-04 18:20 | 45.46104 | -4.71994 | 35998 ft | 493 kts | 45° |
| 2026-05-04 18:20 | 45.50137 | -4.66250 | 35995 ft | 493 kts | 46° |
| 2026-05-04 18:21 | 45.54989 | -4.59324 | 35990 ft | 493 kts | 46° |
| 2026-05-04 18:21 | 45.59829 | -4.52397 | 35999 ft | 493 kts | 46° |
| 2026-05-04 18:22 | 45.64669 | -4.45452 | 35990 ft | 493 kts | 46° |
| 2026-05-04 18:22 | 45.69504 | -4.38495 | 35985 ft | 493 kts | 46° |
| 2026-05-04 18:23 | 45.74330 | -4.31534 | 35994 ft | 493 kts | 46° |
| 2026-05-04 18:23 | 45.79158 | -4.24552 | 35981 ft | 493 kts | 46° |
| 2026-05-04 18:24 | 45.83975 | -4.17567 | 35994 ft | 493 kts | 46° |
| 2026-05-04 18:24 | 45.88790 | -4.10567 | 35995 ft | 492 kts | 46° |
| 2026-05-04 18:25 | 45.93595 | -4.03563 | 35988 ft | 492 kts | 46° |
| 2026-05-04 18:25 | 45.98395 | -3.96548 | 35992 ft | 492 kts | 46° |
| 2026-05-04 18:26 | 46.03189 | -3.89533 | 35992 ft | 491 kts | 46° |
| 2026-05-04 18:26 | 46.07939 | -3.82567 | 36304 ft | 487 kts | 46° |
| 2026-05-04 18:27 | 46.10326 | -3.79055 | 36609 ft | 483 kts | 46° |
| 2026-05-04 18:27 | 46.12665 | -3.75609 | 36862 ft | 480 kts | 46° |
| 2026-05-04 18:27 | 46.14994 | -3.72171 | 36991 ft | 479 kts | 46° |
| 2026-05-04 18:27 | 46.17323 | -3.68729 | 36978 ft | 480 kts | 46° |
| 2026-05-04 18:28 | 46.21991 | -3.61814 | 36994 ft | 482 kts | 46° |
| 2026-05-04 18:28 | 46.26676 | -3.54856 | 36997 ft | 484 kts | 46° |
| 2026-05-04 18:29 | 46.31375 | -3.47860 | 36988 ft | 486 kts | 46° |
| 2026-05-04 18:29 | 46.36053 | -3.40877 | 36990 ft | 487 kts | 46° |
| 2026-05-04 18:30 | 46.43130 | -3.30275 | 36980 ft | 488 kts | 46° |
| 2026-05-04 18:31 | 46.47845 | -3.23185 | 36981 ft | 489 kts | 47° |
| 2026-05-04 18:31 | 46.52561 | -3.16072 | 36983 ft | 489 kts | 47° |
| 2026-05-04 18:32 | 46.57166 | -3.08805 | 36974 ft | 488 kts | 54° |
| 2026-05-04 18:32 | 46.60718 | -3.00446 | 36979 ft | 486 kts | 61° |
| 2026-05-04 18:33 | 46.64046 | -2.91894 | 36982 ft | 486 kts | 61° |
| 2026-05-04 18:33 | 46.67406 | -2.83355 | 36979 ft | 486 kts | 61° |
| 2026-05-04 18:34 | 46.70793 | -2.74837 | 36974 ft | 486 kts | 61° |
| 2026-05-04 18:34 | 46.74183 | -2.66311 | 36969 ft | 486 kts | 61° |
| 2026-05-04 18:35 | 46.77565 | -2.57770 | 36967 ft | 486 kts | 61° |
| 2026-05-04 18:35 | 46.80938 | -2.49216 | 36968 ft | 486 kts | 61° |
| 2026-05-04 18:36 | 46.84300 | -2.40657 | 36967 ft | 486 kts | 61° |
| 2026-05-04 18:36 | 46.87674 | -2.32173 | 36976 ft | 487 kts | 60° |
| 2026-05-04 18:37 | 46.91265 | -2.23773 | 36974 ft | 487 kts | 59° |
| 2026-05-04 18:37 | 46.94879 | -2.15314 | 36954 ft | 487 kts | 59° |
| 2026-05-04 18:38 | 46.98427 | -2.06859 | 36966 ft | 487 kts | 60° |
| 2026-05-04 18:38 | 47.01920 | -1.98431 | 36955 ft | 487 kts | 61° |
| 2026-05-04 18:39 | 47.05253 | -1.89788 | 36965 ft | 487 kts | 63° |
| 2026-05-04 18:39 | 47.08547 | -1.81105 | 36941 ft | 487 kts | 62° |
| 2026-05-04 18:40 | 47.11864 | -1.72417 | 36940 ft | 488 kts | 62° |
| 2026-05-04 18:40 | 47.15208 | -1.63668 | 36939 ft | 488 kts | 62° |
| 2026-05-04 18:41 | 47.18708 | -1.55167 | 36939 ft | 490 kts | 58° |
| 2026-05-04 18:41 | 47.22511 | -1.46847 | 36936 ft | 491 kts | 57° |
| 2026-05-04 18:42 | 47.26329 | -1.38517 | 36938 ft | 491 kts | 58° |
| 2026-05-04 18:42 | 47.30098 | -1.30140 | 36937 ft | 491 kts | 58° |
| 2026-05-04 18:43 | 47.33845 | -1.21718 | 36935 ft | 491 kts | 58° |
| 2026-05-04 18:43 | 47.37583 | -1.13278 | 36934 ft | 491 kts | 59° |
| 2026-05-04 18:44 | 47.41314 | -1.04830 | 36931 ft | 492 kts | 59° |
| 2026-05-04 18:44 | 47.45048 | -0.96356 | 36929 ft | 492 kts | 59° |
| 2026-05-04 18:45 | 47.48775 | -0.87871 | 36931 ft | 492 kts | 59° |
| 2026-05-04 18:45 | 47.52497 | -0.79372 | 36931 ft | 492 kts | 59° |
| 2026-05-04 18:46 | 47.56213 | -0.70861 | 36932 ft | 492 kts | 59° |
| 2026-05-04 18:46 | 47.59925 | -0.62331 | 36934 ft | 493 kts | 59° |
| 2026-05-04 18:47 | 47.63606 | -0.53847 | 36939 ft | 493 kts | 59° |
| 2026-05-04 18:47 | 47.67181 | -0.45581 | 36928 ft | 493 kts | 59° |
| 2026-05-04 18:48 | 47.70874 | -0.37017 | 36937 ft | 493 kts | 59° |
| 2026-05-04 18:48 | 47.74559 | -0.28442 | 36937 ft | 493 kts | 59° |
| 2026-05-04 18:49 | 47.78245 | -0.19839 | 36933 ft | 493 kts | 59° |
| 2026-05-04 18:49 | 47.81921 | -0.11233 | 36936 ft | 493 kts | 59° |
| 2026-05-04 18:50 | 47.85596 | -0.02601 | 36935 ft | 494 kts | 59° |
| 2026-05-04 18:50 | 47.89265 | 0.06046 | 36939 ft | 494 kts | 59° |
| 2026-05-04 18:51 | 47.92933 | 0.14718 | 36939 ft | 494 kts | 59° |
| 2026-05-04 18:51 | 47.96593 | 0.23401 | 36939 ft | 495 kts | 59° |
| 2026-05-04 18:52 | 48.00251 | 0.32107 | 36933 ft | 495 kts | 59° |
| 2026-05-04 18:52 | 48.03905 | 0.40834 | 36934 ft | 495 kts | 59° |
| 2026-05-04 18:53 | 48.07553 | 0.49582 | 36932 ft | 496 kts | 59° |
| 2026-05-04 18:53 | 48.11198 | 0.58340 | 36926 ft | 496 kts | 59° |
| 2026-05-04 18:54 | 48.15136 | 0.66839 | 36923 ft | 498 kts | 54° |
| 2026-05-04 18:54 | 48.19406 | 0.75023 | 36923 ft | 499 kts | 53° |
| 2026-05-04 18:55 | 48.23674 | 0.83226 | 36927 ft | 499 kts | 53° |
| 2026-05-04 18:55 | 48.29977 | 0.95649 | 36926 ft | 499 kts | 54° |
| 2026-05-04 18:56 | 48.34156 | 1.03967 | 36928 ft | 499 kts | 54° |
| 2026-05-04 18:56 | 48.38331 | 1.12299 | 36923 ft | 499 kts | 54° |
| 2026-05-04 18:57 | 48.42503 | 1.20642 | 36924 ft | 499 kts | 54° |
| 2026-05-04 18:57 | 48.46666 | 1.28992 | 36924 ft | 499 kts | 54° |
| 2026-05-04 18:58 | 48.50824 | 1.37361 | 36919 ft | 499 kts | 54° |
| 2026-05-04 18:58 | 48.54975 | 1.45745 | 36926 ft | 499 kts | 54° |
| 2026-05-04 18:59 | 48.59089 | 1.54085 | 36927 ft | 499 kts | 54° |
| 2026-05-04 18:59 | 48.63212 | 1.62516 | 36923 ft | 498 kts | 57° |
| 2026-05-04 19:00 | 48.66273 | 1.71835 | 36942 ft | 494 kts | 71° |
| 2026-05-04 19:00 | 48.68565 | 1.81626 | 36934 ft | 494 kts | 72° |
| 2026-05-04 19:01 | 48.70878 | 1.91426 | 36928 ft | 494 kts | 71° |
| 2026-05-04 19:01 | 48.73057 | 2.00449 | 36938 ft | 495 kts | 71° |
| 2026-05-04 19:02 | 48.75415 | 2.10254 | 36943 ft | 495 kts | 73° |
| 2026-05-04 19:02 | 48.77334 | 2.20245 | 36951 ft | 493 kts | 77° |
| 2026-05-04 19:03 | 48.79075 | 2.30298 | 36938 ft | 494 kts | 77° |
| 2026-05-04 19:03 | 48.80841 | 2.40379 | 36933 ft | 494 kts | 77° |
| 2026-05-04 19:04 | 48.82625 | 2.50430 | 36940 ft | 494 kts | 76° |
| 2026-05-04 19:04 | 48.84406 | 2.60510 | 36931 ft | 494 kts | 77° |
| 2026-05-04 19:05 | 48.86178 | 2.70589 | 36936 ft | 494 kts | 77° |
| 2026-05-04 19:05 | 48.87949 | 2.80675 | 36933 ft | 494 kts | 77° |
| 2026-05-04 19:06 | 48.89713 | 2.90766 | 36937 ft | 494 kts | 77° |
| 2026-05-04 19:06 | 48.91465 | 3.00871 | 36929 ft | 494 kts | 77° |
| 2026-05-04 19:07 | 48.93205 | 3.10981 | 36933 ft | 494 kts | 77° |
| 2026-05-04 19:07 | 48.94936 | 3.21104 | 36935 ft | 494 kts | 77° |
| 2026-05-04 19:08 | 48.96366 | 3.29512 | 36926 ft | 494 kts | 77° |
| 2026-05-04 19:08 | 48.98079 | 3.39633 | 36930 ft | 493 kts | 77° |
| 2026-05-04 19:09 | 48.99781 | 3.49749 | 36928 ft | 493 kts | 77° |
| 2026-05-04 19:09 | 49.01474 | 3.59870 | 36929 ft | 493 kts | 77° |
| 2026-05-04 19:10 | 49.02885 | 3.68353 | 36937 ft | 493 kts | 77° |
| 2026-05-04 19:10 | 49.04831 | 3.80126 | 36935 ft | 493 kts | 78° |
| 2026-05-04 19:11 | 49.06494 | 3.90251 | 36926 ft | 492 kts | 78° |
| 2026-05-04 19:11 | 49.08147 | 4.00384 | 36939 ft | 492 kts | 78° |
| 2026-05-04 19:12 | 49.10611 | 4.15604 | 36933 ft | 493 kts | 78° |
| 2026-05-04 19:13 | 49.12241 | 4.25762 | 36943 ft | 493 kts | 78° |
| 2026-05-04 19:13 | 49.13884 | 4.35906 | 36945 ft | 493 kts | 76° |
| 2026-05-04 19:14 | 49.16320 | 4.45742 | 36948 ft | 496 kts | 68° |
| 2026-05-04 19:14 | 49.19056 | 4.55418 | 36941 ft | 496 kts | 68° |
| 2026-05-04 19:15 | 49.21756 | 4.65138 | 36944 ft | 496 kts | 69° |
| 2026-05-04 19:15 | 49.24392 | 4.74897 | 36941 ft | 496 kts | 69° |
| 2026-05-04 19:16 | 49.27002 | 4.84677 | 36954 ft | 496 kts | 69° |
| 2026-05-04 19:16 | 49.29602 | 4.94460 | 36944 ft | 496 kts | 69° |
| 2026-05-04 19:17 | 49.32196 | 5.04252 | 36952 ft | 496 kts | 69° |
| 2026-05-04 19:17 | 49.34782 | 5.14048 | 36954 ft | 495 kts | 70° |
| 2026-05-04 19:18 | 49.37356 | 5.23841 | 36956 ft | 495 kts | 70° |
| 2026-05-04 19:18 | 49.39921 | 5.33642 | 36950 ft | 495 kts | 70° |
| 2026-05-04 19:19 | 49.42475 | 5.43445 | 36958 ft | 494 kts | 70° |
| 2026-05-04 19:19 | 49.45018 | 5.53251 | 36956 ft | 494 kts | 70° |
| 2026-05-04 19:20 | 49.47548 | 5.63057 | 36963 ft | 494 kts | 70° |
| 2026-05-04 19:20 | 49.50073 | 5.72888 | 36962 ft | 494 kts | 70° |
| 2026-05-04 19:21 | 49.52571 | 5.82729 | 36963 ft | 494 kts | 71° |
| 2026-05-04 19:21 | 49.54989 | 5.92619 | 36966 ft | 494 kts | 71° |
| 2026-05-04 19:22 | 49.57431 | 6.02504 | 36966 ft | 494 kts | 71° |
| 2026-05-04 19:22 | 49.59864 | 6.12409 | 36967 ft | 494 kts | 71° |
| 2026-05-04 19:23 | 49.62281 | 6.22324 | 36966 ft | 494 kts | 71° |
| 2026-05-04 19:23 | 49.64537 | 6.32258 | 36967 ft | 493 kts | 76° |
| 2026-05-04 19:24 | 49.66369 | 6.42441 | 36963 ft | 492 kts | 77° |
| 2026-05-04 19:24 | 49.68114 | 6.52661 | 36967 ft | 493 kts | 77° |
| 2026-05-04 19:25 | 49.69881 | 6.62890 | 36967 ft | 493 kts | 77° |
| 2026-05-04 19:25 | 49.71668 | 6.73118 | 36966 ft | 493 kts | 77° |
| 2026-05-04 19:26 | 49.73453 | 6.83352 | 36985 ft | 493 kts | 77° |
| 2026-05-04 19:26 | 49.75229 | 6.93596 | 36967 ft | 493 kts | 77° |
| 2026-05-04 19:27 | 49.76994 | 7.03841 | 36986 ft | 493 kts | 77° |
| 2026-05-04 19:27 | 49.78748 | 7.14087 | 36995 ft | 492 kts | 77° |
| 2026-05-04 19:28 | 49.80490 | 7.24327 | 36989 ft | 492 kts | 77° |
| 2026-05-04 19:28 | 49.82222 | 7.34566 | 36990 ft | 492 kts | 78° |
| 2026-05-04 19:29 | 49.83946 | 7.44819 | 36992 ft | 491 kts | 78° |
| 2026-05-04 19:29 | 49.85658 | 7.55065 | 36992 ft | 491 kts | 78° |
| 2026-05-04 19:30 | 49.87361 | 7.65314 | 36985 ft | 491 kts | 78° |
| 2026-05-04 19:30 | 49.89054 | 7.75565 | 36982 ft | 491 kts | 78° |
| 2026-05-04 19:31 | 49.90737 | 7.85820 | 36976 ft | 491 kts | 78° |
| 2026-05-04 19:31 | 49.92411 | 7.96084 | 36971 ft | 491 kts | 78° |
| 2026-05-04 19:32 | 49.94078 | 8.06364 | 36967 ft | 491 kts | 78° |
| 2026-05-04 19:32 | 49.95733 | 8.16640 | 36964 ft | 491 kts | 78° |
| 2026-05-04 19:33 | 49.97382 | 8.26940 | 36963 ft | 491 kts | 78° |
| 2026-05-04 19:33 | 49.99022 | 8.37246 | 36963 ft | 491 kts | 78° |
| 2026-05-04 19:34 | 50.00650 | 8.47551 | 36966 ft | 492 kts | 78° |
| 2026-05-04 19:34 | 50.02272 | 8.57886 | 36968 ft | 492 kts | 78° |
| 2026-05-04 19:35 | 50.03885 | 8.68241 | 36967 ft | 493 kts | 78° |
| 2026-05-04 19:35 | 50.05392 | 8.78635 | 36956 ft | 491 kts | 85° |
| 2026-05-04 19:36 | 50.05469 | 8.89138 | 36988 ft | 485 kts | 97° |
| 2026-05-04 19:36 | 50.04949 | 8.99602 | 36976 ft | 485 kts | 97° |
| 2026-05-04 19:37 | 50.04429 | 9.10079 | 36978 ft | 486 kts | 97° |
| 2026-05-04 19:37 | 50.03942 | 9.20564 | 36965 ft | 486 kts | 97° |
| 2026-05-04 19:38 | 50.03463 | 9.31057 | 36978 ft | 486 kts | 97° |
| 2026-05-04 19:38 | 50.02980 | 9.41484 | 36975 ft | 486 kts | 97° |
| 2026-05-04 19:39 | 50.02482 | 9.51951 | 36975 ft | 485 kts | 97° |
| 2026-05-04 19:39 | 50.01975 | 9.62399 | 36986 ft | 485 kts | 97° |
| 2026-05-04 19:40 | 50.01459 | 9.72839 | 36973 ft | 485 kts | 97° |
| 2026-05-04 19:40 | 50.00932 | 9.83292 | 36974 ft | 485 kts | 97° |
| 2026-05-04 19:41 | 50.00396 | 9.93729 | 36966 ft | 485 kts | 97° |
| 2026-05-04 19:41 | 49.99850 | 10.04191 | 36970 ft | 486 kts | 97° |
| 2026-05-04 19:42 | 49.99370 | 10.14683 | 36966 ft | 488 kts | 95° |
| 2026-05-04 19:42 | 49.99210 | 10.25228 | 36962 ft | 489 kts | 93° |
| 2026-05-04 19:43 | 49.99095 | 10.35788 | 36966 ft | 489 kts | 93° |
| 2026-05-04 19:43 | 49.98926 | 10.46364 | 36969 ft | 490 kts | 94° |
| 2026-05-04 19:44 | 49.98717 | 10.56942 | 36964 ft | 490 kts | 94° |
| 2026-05-04 19:44 | 49.98492 | 10.67529 | 36962 ft | 490 kts | 94° |
| 2026-05-04 19:45 | 49.98258 | 10.78123 | 36958 ft | 491 kts | 94° |
| 2026-05-04 19:45 | 49.98313 | 10.88712 | 36030 ft | 501 kts | 82° |
| 2026-05-04 19:45 | 49.98897 | 10.93989 | 35586 ft | 493 kts | 82° |
| 2026-05-04 19:46 | 49.99463 | 10.99204 | 35048 ft | 486 kts | 82° |
| 2026-05-04 19:46 | 50.00008 | 11.04423 | 34519 ft | 481 kts | 82° |
| 2026-05-04 19:46 | 50.00516 | 11.09472 | 34020 ft | 476 kts | 83° |
| 2026-05-04 19:46 | 50.01017 | 11.14597 | 33444 ft | 472 kts | 83° |
| 2026-05-04 19:47 | 50.01501 | 11.19633 | 32912 ft | 471 kts | 83° |
| 2026-05-04 19:47 | 50.01974 | 11.24627 | 32423 ft | 477 kts | 83° |
| 2026-05-04 19:47 | 50.02465 | 11.29841 | 31890 ft | 484 kts | 83° |
| 2026-05-04 19:47 | 50.02947 | 11.34987 | 31375 ft | 490 kts | 83° |
| 2026-05-04 19:48 | 50.03438 | 11.40232 | 30842 ft | 491 kts | 83° |
| 2026-05-04 19:48 | 50.03928 | 11.45484 | 30325 ft | 491 kts | 83° |
| 2026-05-04 19:48 | 50.04423 | 11.50811 | 29769 ft | 491 kts | 83° |
| 2026-05-04 19:48 | 50.04904 | 11.55996 | 29194 ft | 491 kts | 83° |
| 2026-05-04 19:49 | 50.05388 | 11.61251 | 28669 ft | 490 kts | 83° |
| 2026-05-04 19:49 | 50.05869 | 11.66494 | 28126 ft | 490 kts | 83° |
| 2026-05-04 19:49 | 50.06347 | 11.71743 | 27605 ft | 491 kts | 83° |
| 2026-05-04 19:49 | 50.06827 | 11.77038 | 27070 ft | 496 kts | 83° |
| 2026-05-04 19:50 | 50.07308 | 11.82384 | 26533 ft | 500 kts | 83° |
| 2026-05-04 19:50 | 50.07787 | 11.87739 | 25991 ft | 500 kts | 83° |
| 2026-05-04 19:50 | 50.08265 | 11.93105 | 25459 ft | 500 kts | 83° |
| 2026-05-04 19:50 | 50.08739 | 11.98444 | 25108 ft | 496 kts | 83° |
| 2026-05-04 19:51 | 50.09209 | 12.03769 | 25013 ft | 496 kts | 83° |
| 2026-05-04 19:51 | 50.09676 | 12.09078 | 24971 ft | 493 kts | 83° |
| 2026-05-04 19:51 | 50.10139 | 12.14363 | 24962 ft | 492 kts | 83° |
| 2026-05-04 19:51 | 50.10599 | 12.19650 | 24953 ft | 493 kts | 83° |
| 2026-05-04 19:52 | 50.11057 | 12.24940 | 24955 ft | 494 kts | 83° |
| 2026-05-04 19:52 | 50.11513 | 12.30246 | 24948 ft | 494 kts | 83° |
| 2026-05-04 19:52 | 50.11967 | 12.35549 | 24946 ft | 494 kts | 83° |
| 2026-05-04 19:52 | 50.12419 | 12.40864 | 24954 ft | 495 kts | 83° |
| 2026-05-04 19:53 | 50.12868 | 12.46173 | 24956 ft | 495 kts | 83° |
| 2026-05-04 19:53 | 50.13316 | 12.51497 | 24956 ft | 495 kts | 83° |
| 2026-05-04 19:53 | 50.13609 | 12.54986 | 24934 ft | 487 kts | 83° |
| 2026-05-04 19:53 | 50.14185 | 12.61879 | 24181 ft | 477 kts | 83° |
| 2026-05-04 19:54 | 50.14467 | 12.65274 | 23583 ft | 477 kts | 83° |
| 2026-05-04 19:54 | 50.14890 | 12.70405 | 22518 ft | 477 kts | 83° |
| 2026-05-04 19:54 | 50.15306 | 12.75498 | 21475 ft | 468 kts | 83° |
| 2026-05-04 19:54 | 50.15711 | 12.80469 | 20470 ft | 458 kts | 83° |
| 2026-05-04 19:55 | 50.16107 | 12.85351 | 19495 ft | 449 kts | 84° |
| 2026-05-04 19:55 | 50.16493 | 12.90132 | 18554 ft | 440 kts | 84° |
| 2026-05-04 19:55 | 50.16871 | 12.94828 | 17528 ft | 433 kts | 84° |
| 2026-05-04 19:55 | 50.17241 | 12.99447 | 16498 ft | 426 kts | 85° |
| 2026-05-04 19:56 | 50.17604 | 13.04010 | 15499 ft | 421 kts | 85° |
| 2026-05-04 19:56 | 50.17960 | 13.08505 | 14514 ft | 415 kts | 86° |
| 2026-05-04 19:56 | 50.18310 | 13.12949 | 13565 ft | 410 kts | 86° |
| 2026-05-04 19:56 | 50.18653 | 13.17344 | 12586 ft | 405 kts | 86° |
| 2026-05-04 19:57 | 50.18985 | 13.21596 | 12172 ft | 385 kts | 85° |
| 2026-05-04 19:57 | 50.19303 | 13.25653 | 11715 ft | 369 kts | 85° |
| 2026-05-04 19:57 | 50.19608 | 13.29579 | 11312 ft | 361 kts | 85° |
| 2026-05-04 19:57 | 50.19904 | 13.33441 | 10925 ft | 356 kts | 85° |
| 2026-05-04 19:58 | 50.20195 | 13.37248 | 10536 ft | 351 kts | 85° |
| 2026-05-04 19:58 | 50.20481 | 13.41013 | 10157 ft | 347 kts | 84° |
| 2026-05-04 19:58 | 50.20760 | 13.44693 | 9995 ft | 335 kts | 84° |
| 2026-05-04 19:58 | 50.21027 | 13.48218 | 9930 ft | 317 kts | 84° |
| 2026-05-04 19:59 | 50.21277 | 13.51510 | 9923 ft | 294 kts | 84° |
| 2026-05-04 19:59 | 50.21508 | 13.54566 | 9929 ft | 273 kts | 84° |
| 2026-05-04 19:59 | 50.21720 | 13.57405 | 9913 ft | 253 kts | 84° |
| 2026-05-04 19:59 | 50.21922 | 13.60116 | 9334 ft | 259 kts | 84° |
| 2026-05-04 20:00 | 50.22132 | 13.62978 | 8606 ft | 270 kts | 84° |
| 2026-05-04 20:00 | 50.22274 | 13.64925 | 8118 ft | 276 kts | 84° |
| 2026-05-04 20:00 | 50.22347 | 13.65921 | 7875 ft | 279 kts | 84° |
| 2026-05-04 20:00 | 50.22570 | 13.68972 | 7285 ft | 282 kts | 84° |
| 2026-05-04 20:01 | 50.22790 | 13.71976 | 6850 ft | 278 kts | 84° |
| 2026-05-04 20:01 | 50.23009 | 13.74976 | 6313 ft | 278 kts | 84° |
| 2026-05-04 20:01 | 50.23223 | 13.77934 | 5855 ft | 269 kts | 84° |
| 2026-05-04 20:01 | 50.23429 | 13.80783 | 5395 ft | 259 kts | 84° |
| 2026-05-04 20:02 | 50.23627 | 13.83516 | 4936 ft | 248 kts | 84° |
| 2026-05-04 20:02 | 50.23816 | 13.86140 | 4549 ft | 237 kts | 84° |
| 2026-05-04 20:02 | 50.23996 | 13.88633 | 4292 ft | 226 kts | 84° |
| 2026-05-04 20:02 | 50.24168 | 13.91029 | 4059 ft | 217 kts | 84° |
| 2026-05-04 20:03 | 50.24331 | 13.93283 | 3972 ft | 200 kts | 84° |
| 2026-05-04 20:03 | 50.24284 | 13.95342 | 3961 ft | 188 kts | 113° |
| 2026-05-04 20:03 | 50.23638 | 13.97086 | 4007 ft | 190 kts | 120° |
| 2026-05-04 20:03 | 50.22993 | 13.98889 | 3980 ft | 189 kts | 119° |
| 2026-05-04 20:04 | 50.22303 | 14.00620 | 3976 ft | 187 kts | 123° |
| 2026-05-04 20:04 | 50.21546 | 14.02288 | 3970 ft | 184 kts | 125° |
| 2026-05-04 20:04 | 50.20794 | 14.03866 | 3979 ft | 185 kts | 126° |
| 2026-05-04 20:04 | 50.20009 | 14.05492 | 3985 ft | 188 kts | 126° |
| 2026-05-04 20:05 | 50.19247 | 14.07064 | 3871 ft | 174 kts | 126° |
| 2026-05-04 20:05 | 50.18550 | 14.08503 | 3667 ft | 160 kts | 126° |
| 2026-05-04 20:05 | 50.17888 | 14.09873 | 3522 ft | 156 kts | 125° |
| 2026-05-04 20:05 | 50.17250 | 14.11193 | 3326 ft | 150 kts | 125° |
| 2026-05-04 20:06 | 50.16616 | 14.12504 | 3108 ft | 151 kts | 125° |
| 2026-05-04 20:06 | 50.15993 | 14.13791 | 2902 ft | 147 kts | 124° |
| 2026-05-04 20:06 | 50.15380 | 14.15060 | 2716 ft | 147 kts | 124° |
| 2026-05-04 20:06 | 50.14763 | 14.16335 | 2526 ft | 147 kts | 124° |
| 2026-05-04 20:07 | 50.14150 | 14.17604 | 2342 ft | 146 kts | 124° |
| 2026-05-04 20:07 | 50.13540 | 14.18866 | 2138 ft | 146 kts | 124° |
| 2026-05-04 20:07 | 50.12928 | 14.20132 | 1928 ft | 146 kts | 123° |
| 2026-05-04 20:07 | 50.12317 | 14.21403 | 1729 ft | 146 kts | 123° |
| 2026-05-04 20:08 | 50.11711 | 14.22654 | 1524 ft | 145 kts | 123° |
| 2026-05-04 20:08 | 50.11123 | 14.23939 | 1336 ft | 146 kts | 123° |
| 2026-05-04 20:08 | 50.10508 | 14.25162 | 1313 ft | 140 kts | 123° |
| 2026-05-04 20:08 | 50.09880 | 14.26320 | 1813 ft | 140 kts | 130° |
| 2026-05-04 20:09 | 50.09136 | 14.27414 | 2311 ft | 145 kts | 136° |
| 2026-05-04 20:09 | 50.08372 | 14.28429 | 2813 ft | 154 kts | 137° |
| 2026-05-04 20:09 | 50.07635 | 14.29725 | 3192 ft | 169 kts | 126° |
| 2026-05-04 20:09 | 50.06876 | 14.31286 | 3572 ft | 189 kts | 126° |
| 2026-05-04 20:10 | 50.06044 | 14.33033 | 3917 ft | 209 kts | 126° |
| 2026-05-04 20:10 | 50.05173 | 14.34885 | 3953 ft | 214 kts | 126° |
| 2026-05-04 20:10 | 50.04126 | 14.36482 | 3958 ft | 211 kts | 154° |
| 2026-05-04 20:10 | 50.02711 | 14.36897 | 3997 ft | 212 kts | 188° |
| 2026-05-04 20:11 | 50.01372 | 14.35968 | 4004 ft | 216 kts | 222° |
| 2026-05-04 20:11 | 50.00417 | 14.34146 | 4025 ft | 221 kts | 233° |
| 2026-05-04 20:11 | 49.99548 | 14.32168 | 3992 ft | 220 kts | 234° |
| 2026-05-04 20:11 | 49.98706 | 14.30218 | 3979 ft | 215 kts | 234° |
| 2026-05-04 20:12 | 49.97882 | 14.28302 | 3982 ft | 213 kts | 234° |
| 2026-05-04 20:12 | 49.97129 | 14.26323 | 3966 ft | 214 kts | 252° |
| 2026-05-04 20:12 | 49.97079 | 14.24057 | 4008 ft | 212 kts | 287° |
| 2026-05-04 20:12 | 49.97848 | 14.22089 | 4030 ft | 220 kts | 311° |
| 2026-05-04 20:13 | 49.98918 | 14.20372 | 3997 ft | 220 kts | 314° |
| 2026-05-04 20:13 | 49.99994 | 14.18715 | 4014 ft | 216 kts | 314° |
| 2026-05-04 20:13 | 50.01059 | 14.17080 | 4008 ft | 214 kts | 314° |
| 2026-05-04 20:13 | 50.02122 | 14.15442 | 4001 ft | 218 kts | 314° |
| 2026-05-04 20:14 | 50.03204 | 14.13774 | 4004 ft | 220 kts | 314° |
| 2026-05-04 20:14 | 50.04287 | 14.12103 | 3991 ft | 218 kts | 314° |
| 2026-05-04 20:14 | 50.05360 | 14.10448 | 3987 ft | 217 kts | 314° |
| 2026-05-04 20:14 | 50.06431 | 14.08793 | 3987 ft | 216 kts | 314° |
| 2026-05-04 20:15 | 50.07496 | 14.07143 | 3987 ft | 216 kts | 314° |
| 2026-05-04 20:15 | 50.08565 | 14.05489 | 3987 ft | 217 kts | 314° |
| 2026-05-04 20:15 | 50.09634 | 14.03835 | 3986 ft | 217 kts | 314° |
| 2026-05-04 20:15 | 50.10690 | 14.02197 | 3988 ft | 218 kts | 314° |
| 2026-05-04 20:16 | 50.11764 | 14.00529 | 3991 ft | 218 kts | 314° |
| 2026-05-04 20:16 | 50.12839 | 13.98857 | 3990 ft | 219 kts | 314° |
| 2026-05-04 20:16 | 50.13922 | 13.97172 | 3990 ft | 220 kts | 314° |
| 2026-05-04 20:16 | 50.15007 | 13.95482 | 3988 ft | 221 kts | 314° |
| 2026-05-04 20:17 | 50.16096 | 13.93787 | 3981 ft | 221 kts | 314° |
| 2026-05-04 20:17 | 50.17187 | 13.92086 | 3984 ft | 222 kts | 314° |
| 2026-05-04 20:17 | 50.18280 | 13.90379 | 3992 ft | 222 kts | 314° |
| 2026-05-04 20:17 | 50.19370 | 13.88675 | 3975 ft | 222 kts | 314° |
| 2026-05-04 20:18 | 50.20460 | 13.86968 | 3981 ft | 222 kts | 314° |
| 2026-05-04 20:18 | 50.21553 | 13.85264 | 3976 ft | 221 kts | 314° |
| 2026-05-04 20:18 | 50.22637 | 13.83567 | 3984 ft | 221 kts | 314° |
| 2026-05-04 20:18 | 50.23887 | 13.82223 | 3955 ft | 219 kts | 346° |
| 2026-05-04 20:19 | 50.25343 | 13.82420 | 3980 ft | 211 kts | 28° |
| 2026-05-04 20:19 | 50.26291 | 13.84023 | 3971 ft | 199 kts | 72° |
| 2026-05-04 20:19 | 50.26283 | 13.86076 | 3995 ft | 188 kts | 104° |
| 2026-05-04 20:19 | 50.25947 | 13.88069 | 3995 ft | 195 kts | 104° |
| 2026-05-04 20:20 | 50.25584 | 13.90230 | 4006 ft | 210 kts | 104° |
| 2026-05-04 20:20 | 50.25214 | 13.92436 | 3981 ft | 209 kts | 104° |
| 2026-05-04 20:20 | 50.24847 | 13.94626 | 3988 ft | 209 kts | 105° |
| 2026-05-04 20:20 | 50.24214 | 13.96645 | 3989 ft | 208 kts | 126° |
| 2026-05-04 20:21 | 50.23337 | 13.98440 | 3983 ft | 209 kts | 126° |
| 2026-05-04 20:21 | 50.22473 | 14.00268 | 3981 ft | 210 kts | 126° |
| 2026-05-04 20:21 | 50.20761 | 14.03910 | 3964 ft | 198 kts | 125° |
| 2026-05-04 20:22 | 50.19980 | 14.05546 | 3990 ft | 180 kts | 126° |
| 2026-05-04 20:22 | 50.19218 | 14.07124 | 3869 ft | 179 kts | 126° |
| 2026-05-04 20:22 | 50.18485 | 14.08638 | 3666 ft | 170 kts | 126° |
| 2026-05-04 20:22 | 50.17781 | 14.10092 | 3343 ft | 167 kts | 126° |
| 2026-05-04 20:23 | 50.17102 | 14.11523 | 3022 ft | 159 kts | 124° |
| 2026-05-04 20:23 | 50.16471 | 14.12844 | 2805 ft | 148 kts | 123° |
| 2026-05-04 20:23 | 50.15863 | 14.14173 | 2691 ft | 159 kts | 123° |
| 2026-05-04 20:23 | 50.15179 | 14.15594 | 2607 ft | 165 kts | 126° |
| 2026-05-04 20:24 | 50.14484 | 14.16960 | 2436 ft | 156 kts | 126° |
| 2026-05-04 20:24 | 50.13828 | 14.18251 | 2177 ft | 148 kts | 126° |
| 2026-05-04 20:24 | 50.13212 | 14.19493 | 1993 ft | 141 kts | 122° |
| 2026-05-04 20:24 | 50.12635 | 14.20778 | 1763 ft | 149 kts | 121° |
| 2026-05-04 20:25 | 50.12034 | 14.22059 | 1534 ft | 145 kts | 124° |
| 2026-05-04 20:25 | 50.11408 | 14.23276 | 1355 ft | 144 kts | 126° |
| 2026-05-04 20:25 | 50.10808 | 14.24522 | 1211 ft | 143 kts | 123° |
| 2026-05-04 20:25 | 50.10251 | 14.25722 | 1187 ft | 119 kts | 132° |
| 2026-05-04 20:26 | 50.09870 | 14.26467 | 1202 ft | 57 kts | 127° |
| 2026-05-04 20:26 | 50.09736 | 14.26748 | 1207 ft | 23 kts | 126° |
| 2026-05-04 20:26 | 50.09629 | 14.26969 | 1205 ft | 31 kts | 127° |
| 2026-05-04 20:26 | 50.09500 | 14.27233 | 1205 ft | 30 kts | 127° |
| 2026-05-04 20:27 | 50.09451 | 14.27454 | 1209 ft | 20 kts | 54° |
| 2026-05-04 20:27 | 50.09555 | 14.27585 | 1212 ft | 19 kts | 37° |
| 2026-05-04 20:27 | 50.09643 | 14.27630 | 1208 ft | 0 kts | 332° |
| 2026-05-04 20:27 | 50.09654 | 14.27617 | 1207 ft | 4 kts | 315° |
| 2026-05-04 20:28 | 50.09688 | 14.27562 | 1206 ft | 10 kts | 315° |
| 2026-05-04 20:28 | 50.09746 | 14.27474 | 1205 ft | 13 kts | 315° |
| 2026-05-04 20:28 | 50.09820 | 14.27360 | 1203 ft | 17 kts | 315° |
| 2026-05-04 20:28 | 50.09905 | 14.27209 | 1200 ft | 20 kts | 304° |
| 2026-05-04 20:29 | 50.09994 | 14.27021 | 1196 ft | 24 kts | 307° |
| 2026-05-04 20:29 | 50.10106 | 14.26792 | 1183 ft | 30 kts | 307° |
| 2026-05-04 20:29 | 50.10219 | 14.26563 | 1176 ft | 25 kts | 307° |
| 2026-05-04 20:29 | 50.10318 | 14.26353 | 1172 ft | 23 kts | 306° |
| 2026-05-04 20:30 | 50.10411 | 14.26159 | 1172 ft | 19 kts | 307° |
| 2026-05-04 20:30 | 50.10478 | 14.26020 | 1175 ft | 13 kts | 309° |
| 2026-05-04 20:30 | 50.10555 | 14.26001 | 1172 ft | 10 kts | 26° |
| 2026-05-04 20:30 | 50.10609 | 14.26052 | 1171 ft | 9 kts | 31° |
| 2026-05-04 20:31 | 50.10661 | 14.26101 | 1169 ft | 7 kts | 32° |
| 2026-05-04 20:31 | 50.10701 | 14.26146 | 1169 ft | 7 kts | 36° |
| 2026-05-04 20:31 | 50.10741 | 14.26190 | 1170 ft | 7 kts | 34° |
| 2026-05-04 20:31 | 50.10781 | 14.26231 | 1173 ft | 7 kts | 34° |
| 2026-05-04 20:32 | 50.10828 | 14.26282 | 1171 ft | 9 kts | 35° |
| 2026-05-04 20:32 | 50.10889 | 14.26348 | 1172 ft | 12 kts | 34° |
| 2026-05-04 20:32 | 50.10962 | 14.26425 | 1171 ft | 10 kts | 34° |
| 2026-05-04 20:32 | 50.11012 | 14.26477 | 1170 ft | 0 kts | 34° |
| 2026-05-04 20:33 | 50.11020 | 14.26487 | 1170 ft | 5 kts | 37° |
| 2026-05-04 20:33 | 50.11042 | 14.26573 | 1173 ft | 12 kts | 102° |
| 2026-05-04 20:33 | 50.11024 | 14.26614 | 1171 ft | 7 kts | 141° |
| 2026-05-04 20:34 | 50.10962 | 14.26635 | 1173 ft | 6 kts | 201° |
| 2026-05-04 20:34 | 50.10943 | 14.26616 | 1171 ft | 3 kts | 214° |
| 2026-05-04 20:34 | 50.10927 | 14.26597 | 1171 ft | 1 kts | 216° |
| 2026-05-04 20:34 | 50.10925 | 14.26595 | 1171 ft | 0 kts | 216° |